sensor_id;sensor_type;location;lat;lon;timestamp;temperature;humidity
20512;DHT22;10414;52.074;5.126;2023-08-17T00:01:10;18.20;99.90
20512;DHT22;10414;52.074;5.126;2023-08-17T00:03:37;18.40;99.90
20512;DHT22;10414;52.074;5.126;2023-08-17T00:06:05;18.30;99.90
20512;DHT22;10414;52.074;5.126;2023-08-17T00:08:33;18.30;99.90
20512;DHT22;10414;52.074;5.126;2023-08-17T00:11:00;18.30;99.90
20512;DHT22;10414;52.074;5.126;2023-08-17T00:13:28;18.30;99.90
20512;DHT22;10414;52.074;5.126;2023-08-17T00:15:55;18.20;99.90
20512;DHT22;10414;52.074;5.126;2023-08-17T00:18:22;18.10;99.90
20512;DHT22;10414;52.074;5.126;2023-08-17T00:20:49;18.10;99.90
20512;DHT22;10414;52.074;5.126;2023-08-17T00:23:20;18.00;99.90
20512;DHT22;10414;52.074;5.126;2023-08-17T00:25:47;18.10;99.90
20512;DHT22;10414;52.074;5.126;2023-08-17T00:28:14;18.00;99.90
20512;DHT22;10414;52.074;5.126;2023-08-17T00:30:43;17.90;99.90
20512;DHT22;10414;52.074;5.126;2023-08-17T00:33:10;18.10;99.90
20512;DHT22;10414;52.074;5.126;2023-08-17T00:35:38;18.10;99.90
20512;DHT22;10414;52.074;5.126;2023-08-17T00:38:05;18.10;99.90
20512;DHT22;10414;52.074;5.126;2023-08-17T00:40:33;18.10;99.90
20512;DHT22;10414;52.074;5.126;2023-08-17T00:43:00;18.00;99.90
20512;DHT22;10414;52.074;5.126;2023-08-17T00:45:27;18.00;99.90
20512;DHT22;10414;52.074;5.126;2023-08-17T00:47:56;18.10;99.90
20512;DHT22;10414;52.074;5.126;2023-08-17T00:50:24;18.10;99.90
20512;DHT22;10414;52.074;5.126;2023-08-17T00:52:52;18.00;99.90
20512;DHT22;10414;52.074;5.126;2023-08-17T00:55:21;17.90;99.90
20512;DHT22;10414;52.074;5.126;2023-08-17T00:57:49;17.80;99.90
20512;DHT22;10414;52.074;5.126;2023-08-17T01:00:17;17.70;99.90
20512;DHT22;10414;52.074;5.126;2023-08-17T01:02:44;17.80;99.90
20512;DHT22;10414;52.074;5.126;2023-08-17T01:05:12;17.80;99.90
20512;DHT22;10414;52.074;5.126;2023-08-17T01:07:39;17.90;99.90
20512;DHT22;10414;52.074;5.126;2023-08-17T01:10:07;17.80;99.90
20512;DHT22;10414;52.074;5.126;2023-08-17T01:12:42;17.80;99.90
20512;DHT22;10414;52.074;5.126;2023-08-17T01:15:15;17.80;99.90
20512;DHT22;10414;52.074;5.126;2023-08-17T01:17:52;17.80;99.90
20512;DHT22;10414;52.074;5.126;2023-08-17T01:20:21;17.80;99.90
20512;DHT22;10414;52.074;5.126;2023-08-17T01:22:51;17.80;99.90
20512;DHT22;10414;52.074;5.126;2023-08-17T01:25:20;17.70;99.90
20512;DHT22;10414;52.074;5.126;2023-08-17T01:27:47;17.60;99.90
20512;DHT22;10414;52.074;5.126;2023-08-17T01:30:16;17.50;99.90
20512;DHT22;10414;52.074;5.126;2023-08-17T01:32:48;17.60;99.90
20512;DHT22;10414;52.074;5.126;2023-08-17T01:35:21;17.50;99.90
20512;DHT22;10414;52.074;5.126;2023-08-17T01:37:53;17.40;99.90
20512;DHT22;10414;52.074;5.126;2023-08-17T01:40:24;17.50;99.90
20512;DHT22;10414;52.074;5.126;2023-08-17T01:43:00;17.50;99.90
20512;DHT22;10414;52.074;5.126;2023-08-17T01:45:28;17.60;99.90
20512;DHT22;10414;52.074;5.126;2023-08-17T01:47:55;17.60;99.90
20512;DHT22;10414;52.074;5.126;2023-08-17T01:50:22;17.70;99.90
20512;DHT22;10414;52.074;5.126;2023-08-17T01:52:49;17.60;99.90
20512;DHT22;10414;52.074;5.126;2023-08-17T01:55:16;17.50;99.90
20512;DHT22;10414;52.074;5.126;2023-08-17T01:57:44;17.50;99.90
20512;DHT22;10414;52.074;5.126;2023-08-17T02:00:12;17.40;99.90
20512;DHT22;10414;52.074;5.126;2023-08-17T02:02:40;17.60;99.90
20512;DHT22;10414;52.074;5.126;2023-08-17T02:05:07;17.60;99.90
20512;DHT22;10414;52.074;5.126;2023-08-17T02:07:34;17.50;99.90
20512;DHT22;10414;52.074;5.126;2023-08-17T02:10:01;17.40;99.90
20512;DHT22;10414;52.074;5.126;2023-08-17T02:12:28;17.40;99.90
20512;DHT22;10414;52.074;5.126;2023-08-17T02:14:56;17.50;99.90
20512;DHT22;10414;52.074;5.126;2023-08-17T02:17:23;17.40;99.90
20512;DHT22;10414;52.074;5.126;2023-08-17T02:19:50;17.50;99.90
20512;DHT22;10414;52.074;5.126;2023-08-17T02:22:19;17.70;99.90
20512;DHT22;10414;52.074;5.126;2023-08-17T02:24:45;17.60;99.90
20512;DHT22;10414;52.074;5.126;2023-08-17T02:27:14;17.60;99.90
20512;DHT22;10414;52.074;5.126;2023-08-17T02:29:41;17.50;99.90
20512;DHT22;10414;52.074;5.126;2023-08-17T02:32:09;17.50;99.90
20512;DHT22;10414;52.074;5.126;2023-08-17T02:34:38;17.50;99.90
20512;DHT22;10414;52.074;5.126;2023-08-17T02:37:05;17.40;99.90
20512;DHT22;10414;52.074;5.126;2023-08-17T02:39:32;17.40;99.90
20512;DHT22;10414;52.074;5.126;2023-08-17T02:41:59;17.40;99.90
20512;DHT22;10414;52.074;5.126;2023-08-17T02:44:28;17.40;99.90
20512;DHT22;10414;52.074;5.126;2023-08-17T02:46:56;17.30;99.90
20512;DHT22;10414;52.074;5.126;2023-08-17T02:49:24;17.30;99.90
20512;DHT22;10414;52.074;5.126;2023-08-17T02:51:50;17.20;99.90
20512;DHT22;10414;52.074;5.126;2023-08-17T02:54:17;17.30;99.90
20512;DHT22;10414;52.074;5.126;2023-08-17T02:56:44;17.30;99.90
20512;DHT22;10414;52.074;5.126;2023-08-17T02:59:11;17.30;99.90
20512;DHT22;10414;52.074;5.126;2023-08-17T03:01:45;17.20;99.90
20512;DHT22;10414;52.074;5.126;2023-08-17T03:04:14;17.30;99.90
20512;DHT22;10414;52.074;5.126;2023-08-17T03:06:43;17.40;99.90
20512;DHT22;10414;52.074;5.126;2023-08-17T03:09:09;17.50;99.90
20512;DHT22;10414;52.074;5.126;2023-08-17T03:11:36;17.50;99.90
20512;DHT22;10414;52.074;5.126;2023-08-17T03:14:06;17.50;99.90
20512;DHT22;10414;52.074;5.126;2023-08-17T03:16:32;17.60;99.90
20512;DHT22;10414;52.074;5.126;2023-08-17T03:18:59;17.50;99.90
20512;DHT22;10414;52.074;5.126;2023-08-17T03:21:26;17.50;99.90
20512;DHT22;10414;52.074;5.126;2023-08-17T03:23:54;17.50;99.90
20512;DHT22;10414;52.074;5.126;2023-08-17T03:26:21;17.30;99.90
20512;DHT22;10414;52.074;5.126;2023-08-17T03:28:51;17.30;99.90
20512;DHT22;10414;52.074;5.126;2023-08-17T03:31:24;17.30;99.90
20512;DHT22;10414;52.074;5.126;2023-08-17T03:33:51;17.40;99.90
20512;DHT22;10414;52.074;5.126;2023-08-17T03:36:20;17.40;99.90
20512;DHT22;10414;52.074;5.126;2023-08-17T03:38:49;17.40;99.90
20512;DHT22;10414;52.074;5.126;2023-08-17T03:41:20;17.20;99.90
20512;DHT22;10414;52.074;5.126;2023-08-17T03:43:50;17.20;99.90
20512;DHT22;10414;52.074;5.126;2023-08-17T03:46:17;17.30;99.90
20512;DHT22;10414;52.074;5.126;2023-08-17T03:48:45;17.30;99.90
20512;DHT22;10414;52.074;5.126;2023-08-17T03:51:11;17.40;99.90
20512;DHT22;10414;52.074;5.126;2023-08-17T03:53:38;17.20;99.90
20512;DHT22;10414;52.074;5.126;2023-08-17T03:56:05;17.10;99.90
20512;DHT22;10414;52.074;5.126;2023-08-17T03:58:36;17.20;99.90
20512;DHT22;10414;52.074;5.126;2023-08-17T04:01:03;17.20;99.90
20512;DHT22;10414;52.074;5.126;2023-08-17T04:03:32;17.20;99.90
20512;DHT22;10414;52.074;5.126;2023-08-17T04:06:04;17.10;99.90
20512;DHT22;10414;52.074;5.126;2023-08-17T04:08:31;17.10;99.90
20512;DHT22;10414;52.074;5.126;2023-08-17T04:11:01;17.20;99.90
20512;DHT22;10414;52.074;5.126;2023-08-17T04:13:27;17.20;99.90
20512;DHT22;10414;52.074;5.126;2023-08-17T04:16:01;17.10;99.90
20512;DHT22;10414;52.074;5.126;2023-08-17T04:18:31;17.00;99.90
20512;DHT22;10414;52.074;5.126;2023-08-17T04:20:57;17.00;99.90
20512;DHT22;10414;52.074;5.126;2023-08-17T04:23:27;17.00;99.90
20512;DHT22;10414;52.074;5.126;2023-08-17T04:25:54;17.00;99.90
20512;DHT22;10414;52.074;5.126;2023-08-17T04:28:21;17.10;99.90
20512;DHT22;10414;52.074;5.126;2023-08-17T04:30:48;17.10;99.90
20512;DHT22;10414;52.074;5.126;2023-08-17T04:33:20;17.10;99.90
20512;DHT22;10414;52.074;5.126;2023-08-17T04:35:47;17.00;99.90
20512;DHT22;10414;52.074;5.126;2023-08-17T04:38:14;17.00;99.90
20512;DHT22;10414;52.074;5.126;2023-08-17T04:40:41;17.10;99.90
20512;DHT22;10414;52.074;5.126;2023-08-17T04:43:19;17.30;99.90
20512;DHT22;10414;52.074;5.126;2023-08-17T04:45:46;17.10;99.90
20512;DHT22;10414;52.074;5.126;2023-08-17T04:48:13;17.10;99.90
20512;DHT22;10414;52.074;5.126;2023-08-17T04:50:42;17.10;99.90
20512;DHT22;10414;52.074;5.126;2023-08-17T04:53:09;17.20;99.90
20512;DHT22;10414;52.074;5.126;2023-08-17T04:55:35;17.10;99.90
20512;DHT22;10414;52.074;5.126;2023-08-17T04:58:02;17.00;99.90
20512;DHT22;10414;52.074;5.126;2023-08-17T05:00:29;17.00;99.90
20512;DHT22;10414;52.074;5.126;2023-08-17T05:02:56;17.00;99.90
20512;DHT22;10414;52.074;5.126;2023-08-17T05:05:28;17.00;99.90
20512;DHT22;10414;52.074;5.126;2023-08-17T05:08:06;17.10;99.90
20512;DHT22;10414;52.074;5.126;2023-08-17T05:10:32;17.10;99.90
20512;DHT22;10414;52.074;5.126;2023-08-17T05:12:59;17.20;99.90
20512;DHT22;10414;52.074;5.126;2023-08-17T05:15:26;17.20;99.90
20512;DHT22;10414;52.074;5.126;2023-08-17T05:17:53;17.40;99.90
20512;DHT22;10414;52.074;5.126;2023-08-17T05:20:21;17.50;99.90
20512;DHT22;10414;52.074;5.126;2023-08-17T05:22:51;17.40;99.90
20512;DHT22;10414;52.074;5.126;2023-08-17T05:25:20;17.40;99.90
20512;DHT22;10414;52.074;5.126;2023-08-17T05:27:47;17.50;99.90
20512;DHT22;10414;52.074;5.126;2023-08-17T05:30:15;17.60;99.90
20512;DHT22;10414;52.074;5.126;2023-08-17T05:32:45;17.80;99.90
20512;DHT22;10414;52.074;5.126;2023-08-17T05:35:12;17.90;99.90
20512;DHT22;10414;52.074;5.126;2023-08-17T05:37:39;18.30;99.90
20512;DHT22;10414;52.074;5.126;2023-08-17T05:40:06;18.60;99.90
20512;DHT22;10414;52.074;5.126;2023-08-17T05:42:35;18.80;99.90
20512;DHT22;10414;52.074;5.126;2023-08-17T05:45:09;18.40;99.90
20512;DHT22;10414;52.074;5.126;2023-08-17T05:47:37;18.40;99.90
20512;DHT22;10414;52.074;5.126;2023-08-17T05:50:06;18.00;99.90
20512;DHT22;10414;52.074;5.126;2023-08-17T05:52:36;18.00;99.90
20512;DHT22;10414;52.074;5.126;2023-08-17T05:55:03;17.90;99.90
20512;DHT22;10414;52.074;5.126;2023-08-17T05:57:30;17.80;99.90
20512;DHT22;10414;52.074;5.126;2023-08-17T05:59:58;17.60;99.90
20512;DHT22;10414;52.074;5.126;2023-08-17T06:02:25;17.70;99.90
20512;DHT22;10414;52.074;5.126;2023-08-17T06:04:52;17.70;99.90
20512;DHT22;10414;52.074;5.126;2023-08-17T06:07:18;17.70;99.90
20512;DHT22;10414;52.074;5.126;2023-08-17T06:09:45;17.80;99.90
20512;DHT22;10414;52.074;5.126;2023-08-17T06:12:12;17.70;99.90
20512;DHT22;10414;52.074;5.126;2023-08-17T06:14:39;17.70;99.90
20512;DHT22;10414;52.074;5.126;2023-08-17T06:17:16;17.90;99.90
20512;DHT22;10414;52.074;5.126;2023-08-17T06:19:44;18.00;99.90
20512;DHT22;10414;52.074;5.126;2023-08-17T06:22:13;18.00;99.90
20512;DHT22;10414;52.074;5.126;2023-08-17T06:24:43;18.20;99.90
20512;DHT22;10414;52.074;5.126;2023-08-17T06:27:13;18.20;99.90
20512;DHT22;10414;52.074;5.126;2023-08-17T06:29:40;18.30;99.90
20512;DHT22;10414;52.074;5.126;2023-08-17T06:32:07;18.40;99.90
20512;DHT22;10414;52.074;5.126;2023-08-17T06:34:38;18.40;99.90
20512;DHT22;10414;52.074;5.126;2023-08-17T06:37:04;18.80;99.90
20512;DHT22;10414;52.074;5.126;2023-08-17T06:39:33;18.90;99.90
20512;DHT22;10414;52.074;5.126;2023-08-17T06:42:00;19.00;99.90
20512;DHT22;10414;52.074;5.126;2023-08-17T06:44:29;18.90;99.90
20512;DHT22;10414;52.074;5.126;2023-08-17T06:46:57;19.10;99.90
20512;DHT22;10414;52.074;5.126;2023-08-17T06:49:24;19.10;99.90
20512;DHT22;10414;52.074;5.126;2023-08-17T06:51:53;19.10;99.90
20512;DHT22;10414;52.074;5.126;2023-08-17T06:54:19;18.90;99.90
20512;DHT22;10414;52.074;5.126;2023-08-17T06:56:49;19.10;99.90
20512;DHT22;10414;52.074;5.126;2023-08-17T06:59:18;19.20;99.90
20512;DHT22;10414;52.074;5.126;2023-08-17T07:01:45;19.10;99.90
20512;DHT22;10414;52.074;5.126;2023-08-17T07:04:12;19.20;99.90
20512;DHT22;10414;52.074;5.126;2023-08-17T07:06:41;19.40;99.90
20512;DHT22;10414;52.074;5.126;2023-08-17T07:09:10;19.20;99.90
20512;DHT22;10414;52.074;5.126;2023-08-17T07:11:40;19.60;99.90
20512;DHT22;10414;52.074;5.126;2023-08-17T07:14:07;19.80;99.90
20512;DHT22;10414;52.074;5.126;2023-08-17T07:16:34;20.10;99.90
20512;DHT22;10414;52.074;5.126;2023-08-17T07:19:01;20.10;99.90
20512;DHT22;10414;52.074;5.126;2023-08-17T07:21:31;20.10;99.90
20512;DHT22;10414;52.074;5.126;2023-08-17T07:23:58;20.70;99.90
20512;DHT22;10414;52.074;5.126;2023-08-17T07:26:39;20.80;99.90
20512;DHT22;10414;52.074;5.126;2023-08-17T07:29:06;20.60;99.90
20512;DHT22;10414;52.074;5.126;2023-08-17T07:31:32;20.50;99.90
20512;DHT22;10414;52.074;5.126;2023-08-17T07:34:03;20.40;99.90
20512;DHT22;10414;52.074;5.126;2023-08-17T07:36:30;20.50;99.90
20512;DHT22;10414;52.074;5.126;2023-08-17T07:38:57;21.00;99.90
20512;DHT22;10414;52.074;5.126;2023-08-17T07:41:25;21.40;99.90
20512;DHT22;10414;52.074;5.126;2023-08-17T07:43:53;20.90;99.90
20512;DHT22;10414;52.074;5.126;2023-08-17T07:46:23;20.60;99.90
20512;DHT22;10414;52.074;5.126;2023-08-17T07:48:52;20.80;99.90
20512;DHT22;10414;52.074;5.126;2023-08-17T07:51:25;21.20;99.90
20512;DHT22;10414;52.074;5.126;2023-08-17T07:53:51;22.00;99.90
20512;DHT22;10414;52.074;5.126;2023-08-17T07:56:18;22.20;99.90
20512;DHT22;10414;52.074;5.126;2023-08-17T07:58:46;22.30;99.90
20512;DHT22;10414;52.074;5.126;2023-08-17T08:01:14;23.30;99.90
20512;DHT22;10414;52.074;5.126;2023-08-17T08:03:44;24.40;99.90
20512;DHT22;10414;52.074;5.126;2023-08-17T08:06:10;25.30;99.90
20512;DHT22;10414;52.074;5.126;2023-08-17T08:08:37;26.70;99.90
20512;DHT22;10414;52.074;5.126;2023-08-17T08:11:04;26.50;99.90
20512;DHT22;10414;52.074;5.126;2023-08-17T08:13:31;26.90;99.90
20512;DHT22;10414;52.074;5.126;2023-08-17T08:15:58;26.50;99.90
20512;DHT22;10414;52.074;5.126;2023-08-17T08:18:27;26.30;99.90
20512;DHT22;10414;52.074;5.126;2023-08-17T08:20:57;27.10;99.90
20512;DHT22;10414;52.074;5.126;2023-08-17T08:23:23;27.20;99.90
20512;DHT22;10414;52.074;5.126;2023-08-17T08:25:51;28.00;99.90
20512;DHT22;10414;52.074;5.126;2023-08-17T08:28:23;28.10;99.90
20512;DHT22;10414;52.074;5.126;2023-08-17T08:30:53;28.00;99.90
20512;DHT22;10414;52.074;5.126;2023-08-17T08:33:20;27.60;99.90
20512;DHT22;10414;52.074;5.126;2023-08-17T08:35:48;27.50;99.90
20512;DHT22;10414;52.074;5.126;2023-08-17T08:38:15;27.70;99.90
20512;DHT22;10414;52.074;5.126;2023-08-17T08:40:42;26.80;99.90
20512;DHT22;10414;52.074;5.126;2023-08-17T08:43:10;26.70;99.90
20512;DHT22;10414;52.074;5.126;2023-08-17T08:45:37;27.10;99.90
20512;DHT22;10414;52.074;5.126;2023-08-17T08:48:08;28.00;99.90
20512;DHT22;10414;52.074;5.126;2023-08-17T08:50:36;27.90;99.90
20512;DHT22;10414;52.074;5.126;2023-08-17T08:53:14;27.50;99.90
20512;DHT22;10414;52.074;5.126;2023-08-17T08:55:47;27.10;99.90
20512;DHT22;10414;52.074;5.126;2023-08-17T08:58:15;26.50;99.90
20512;DHT22;10414;52.074;5.126;2023-08-17T09:00:46;24.70;99.90
20512;DHT22;10414;52.074;5.126;2023-08-17T09:03:15;24.30;99.90
20512;DHT22;10414;52.074;5.126;2023-08-17T09:05:42;24.70;99.90
20512;DHT22;10414;52.074;5.126;2023-08-17T09:08:13;24.50;99.90
20512;DHT22;10414;52.074;5.126;2023-08-17T09:10:41;24.50;99.90
20512;DHT22;10414;52.074;5.126;2023-08-17T09:13:09;24.00;99.90
20512;DHT22;10414;52.074;5.126;2023-08-17T09:15:36;23.90;99.90
20512;DHT22;10414;52.074;5.126;2023-08-17T09:18:07;23.60;99.90
20512;DHT22;10414;52.074;5.126;2023-08-17T09:20:37;23.60;99.90
20512;DHT22;10414;52.074;5.126;2023-08-17T09:23:10;23.40;99.90
20512;DHT22;10414;52.074;5.126;2023-08-17T09:25:41;23.80;99.90
20512;DHT22;10414;52.074;5.126;2023-08-17T09:28:09;23.50;99.90
20512;DHT22;10414;52.074;5.126;2023-08-17T09:30:50;23.30;99.90
20512;DHT22;10414;52.074;5.126;2023-08-17T09:33:18;23.70;99.90
20512;DHT22;10414;52.074;5.126;2023-08-17T09:35:45;23.60;99.90
20512;DHT22;10414;52.074;5.126;2023-08-17T09:38:12;23.40;99.90
20512;DHT22;10414;52.074;5.126;2023-08-17T09:40:40;23.40;99.90
20512;DHT22;10414;52.074;5.126;2023-08-17T09:43:08;23.00;99.90
20512;DHT22;10414;52.074;5.126;2023-08-17T09:45:37;23.20;99.90
20512;DHT22;10414;52.074;5.126;2023-08-17T09:48:04;23.50;99.90
20512;DHT22;10414;52.074;5.126;2023-08-17T09:50:31;23.70;99.90
20512;DHT22;10414;52.074;5.126;2023-08-17T09:52:59;23.40;99.90
20512;DHT22;10414;52.074;5.126;2023-08-17T09:55:26;23.40;99.90
20512;DHT22;10414;52.074;5.126;2023-08-17T09:57:54;23.60;99.90
20512;DHT22;10414;52.074;5.126;2023-08-17T10:00:21;23.50;99.90
20512;DHT22;10414;52.074;5.126;2023-08-17T10:02:50;23.60;99.90
20512;DHT22;10414;52.074;5.126;2023-08-17T10:05:18;23.10;99.90
20512;DHT22;10414;52.074;5.126;2023-08-17T10:07:49;23.70;99.90
20512;DHT22;10414;52.074;5.126;2023-08-17T10:10:22;24.20;99.90
20512;DHT22;10414;52.074;5.126;2023-08-17T10:12:59;24.10;99.90
20512;DHT22;10414;52.074;5.126;2023-08-17T10:15:30;24.00;99.90
20512;DHT22;10414;52.074;5.126;2023-08-17T10:18:10;24.20;99.90
20512;DHT22;10414;52.074;5.126;2023-08-17T10:20:42;24.30;99.90
20512;DHT22;10414;52.074;5.126;2023-08-17T10:23:14;24.90;99.90
20512;DHT22;10414;52.074;5.126;2023-08-17T10:25:42;24.50;99.90
20512;DHT22;10414;52.074;5.126;2023-08-17T10:28:12;23.70;99.90
20512;DHT22;10414;52.074;5.126;2023-08-17T10:30:41;23.50;99.90
20512;DHT22;10414;52.074;5.126;2023-08-17T10:33:08;23.20;99.90
20512;DHT22;10414;52.074;5.126;2023-08-17T10:35:37;23.30;99.90
20512;DHT22;10414;52.074;5.126;2023-08-17T10:38:05;23.40;99.90
20512;DHT22;10414;52.074;5.126;2023-08-17T10:40:35;23.60;99.90
20512;DHT22;10414;52.074;5.126;2023-08-17T10:43:03;23.80;99.90
20512;DHT22;10414;52.074;5.126;2023-08-17T10:45:35;23.90;99.90
20512;DHT22;10414;52.074;5.126;2023-08-17T10:48:25;23.20;99.90
20512;DHT22;10414;52.074;5.126;2023-08-17T10:51:03;22.90;99.90
20512;DHT22;10414;52.074;5.126;2023-08-17T10:53:35;22.90;99.90
20512;DHT22;10414;52.074;5.126;2023-08-17T10:56:07;23.00;99.90
20512;DHT22;10414;52.074;5.126;2023-08-17T10:58:35;22.80;99.90
20512;DHT22;10414;52.074;5.126;2023-08-17T11:01:04;22.80;99.90
20512;DHT22;10414;52.074;5.126;2023-08-17T11:03:31;22.80;99.90
20512;DHT22;10414;52.074;5.126;2023-08-17T11:06:14;22.30;99.90
20512;DHT22;10414;52.074;5.126;2023-08-17T11:08:52;22.50;99.90
20512;DHT22;10414;52.074;5.126;2023-08-17T11:11:21;22.40;99.90
20512;DHT22;10414;52.074;5.126;2023-08-17T11:13:49;22.10;99.90
20512;DHT22;10414;52.074;5.126;2023-08-17T11:16:17;22.30;99.90
20512;DHT22;10414;52.074;5.126;2023-08-17T11:18:49;22.00;99.90
20512;DHT22;10414;52.074;5.126;2023-08-17T11:21:18;22.20;99.90
20512;DHT22;10414;52.074;5.126;2023-08-17T11:23:48;22.60;99.90
20512;DHT22;10414;52.074;5.126;2023-08-17T11:26:16;22.70;99.90
20512;DHT22;10414;52.074;5.126;2023-08-17T11:28:46;22.60;99.90
20512;DHT22;10414;52.074;5.126;2023-08-17T11:31:13;22.50;99.90
20512;DHT22;10414;52.074;5.126;2023-08-17T11:33:42;22.40;99.90
20512;DHT22;10414;52.074;5.126;2023-08-17T11:36:10;22.80;99.90
20512;DHT22;10414;52.074;5.126;2023-08-17T11:38:38;22.50;99.90
20512;DHT22;10414;52.074;5.126;2023-08-17T11:41:06;22.10;99.90
20512;DHT22;10414;52.074;5.126;2023-08-17T11:43:35;22.20;99.90
20512;DHT22;10414;52.074;5.126;2023-08-17T11:46:02;22.30;99.90
20512;DHT22;10414;52.074;5.126;2023-08-17T11:48:30;22.00;99.90
20512;DHT22;10414;52.074;5.126;2023-08-17T11:50:58;21.70;99.90
20512;DHT22;10414;52.074;5.126;2023-08-17T11:53:33;21.90;99.90
20512;DHT22;10414;52.074;5.126;2023-08-17T11:56:07;22.10;99.90
20512;DHT22;10414;52.074;5.126;2023-08-17T11:58:40;22.00;99.90
20512;DHT22;10414;52.074;5.126;2023-08-17T12:01:09;22.10;99.90
20512;DHT22;10414;52.074;5.126;2023-08-17T12:03:36;22.10;99.90
20512;DHT22;10414;52.074;5.126;2023-08-17T12:06:09;22.30;99.90
20512;DHT22;10414;52.074;5.126;2023-08-17T12:08:36;22.20;99.90
20512;DHT22;10414;52.074;5.126;2023-08-17T12:11:03;22.40;99.90
20512;DHT22;10414;52.074;5.126;2023-08-17T12:13:33;22.50;99.90
20512;DHT22;10414;52.074;5.126;2023-08-17T12:16:00;22.80;99.90
20512;DHT22;10414;52.074;5.126;2023-08-17T12:18:27;22.80;99.90
20512;DHT22;10414;52.074;5.126;2023-08-17T12:20:55;22.50;99.90
20512;DHT22;10414;52.074;5.126;2023-08-17T12:23:23;22.60;99.90
20512;DHT22;10414;52.074;5.126;2023-08-17T12:25:54;22.60;99.90
20512;DHT22;10414;52.074;5.126;2023-08-17T12:28:22;22.90;99.90
20512;DHT22;10414;52.074;5.126;2023-08-17T12:30:57;22.60;99.90
20512;DHT22;10414;52.074;5.126;2023-08-17T12:33:25;22.70;99.90
20512;DHT22;10414;52.074;5.126;2023-08-17T12:35:52;22.80;99.90
20512;DHT22;10414;52.074;5.126;2023-08-17T12:38:19;22.90;99.90
20512;DHT22;10414;52.074;5.126;2023-08-17T12:40:47;23.00;99.90
20512;DHT22;10414;52.074;5.126;2023-08-17T12:43:14;23.10;99.90
20512;DHT22;10414;52.074;5.126;2023-08-17T12:45:41;22.80;99.90
20512;DHT22;10414;52.074;5.126;2023-08-17T12:48:08;22.80;99.90
20512;DHT22;10414;52.074;5.126;2023-08-17T12:50:35;22.90;99.90
20512;DHT22;10414;52.074;5.126;2023-08-17T12:53:02;23.10;99.90
20512;DHT22;10414;52.074;5.126;2023-08-17T12:55:28;23.00;99.90
20512;DHT22;10414;52.074;5.126;2023-08-17T12:58:00;23.00;99.90
20512;DHT22;10414;52.074;5.126;2023-08-17T13:00:26;22.60;99.90
20512;DHT22;10414;52.074;5.126;2023-08-17T13:02:53;22.40;99.90
20512;DHT22;10414;52.074;5.126;2023-08-17T13:05:21;22.30;99.90
20512;DHT22;10414;52.074;5.126;2023-08-17T13:07:49;22.20;99.90
20512;DHT22;10414;52.074;5.126;2023-08-17T13:10:16;22.40;99.90
20512;DHT22;10414;52.074;5.126;2023-08-17T13:12:43;22.60;99.90
20512;DHT22;10414;52.074;5.126;2023-08-17T13:15:11;22.50;99.90
20512;DHT22;10414;52.074;5.126;2023-08-17T13:17:38;22.20;99.90
20512;DHT22;10414;52.074;5.126;2023-08-17T13:20:06;22.20;99.90
20512;DHT22;10414;52.074;5.126;2023-08-17T13:22:34;22.10;99.90
20512;DHT22;10414;52.074;5.126;2023-08-17T13:25:02;21.80;99.90
20512;DHT22;10414;52.074;5.126;2023-08-17T13:27:29;21.80;99.90
20512;DHT22;10414;52.074;5.126;2023-08-17T13:29:56;21.90;99.90
20512;DHT22;10414;52.074;5.126;2023-08-17T13:32:25;22.10;99.90
20512;DHT22;10414;52.074;5.126;2023-08-17T13:35:01;22.30;99.90
20512;DHT22;10414;52.074;5.126;2023-08-17T13:37:28;22.20;99.90
20512;DHT22;10414;52.074;5.126;2023-08-17T13:39:55;21.90;99.90
20512;DHT22;10414;52.074;5.126;2023-08-17T13:42:29;21.90;99.90
20512;DHT22;10414;52.074;5.126;2023-08-17T13:44:56;21.60;99.90
20512;DHT22;10414;52.074;5.126;2023-08-17T13:47:25;21.30;99.90
20512;DHT22;10414;52.074;5.126;2023-08-17T13:49:53;21.30;99.90
20512;DHT22;10414;52.074;5.126;2023-08-17T13:52:20;21.60;99.90
20512;DHT22;10414;52.074;5.126;2023-08-17T13:54:52;21.90;99.90
20512;DHT22;10414;52.074;5.126;2023-08-17T13:57:19;22.50;99.90
20512;DHT22;10414;52.074;5.126;2023-08-17T13:59:46;22.50;99.90
20512;DHT22;10414;52.074;5.126;2023-08-17T14:02:13;22.60;99.90
20512;DHT22;10414;52.074;5.126;2023-08-17T14:04:41;22.90;99.90
20512;DHT22;10414;52.074;5.126;2023-08-17T14:07:08;22.70;99.90
20512;DHT22;10414;52.074;5.126;2023-08-17T14:09:35;23.00;99.90
20512;DHT22;10414;52.074;5.126;2023-08-17T14:12:04;22.90;99.90
20512;DHT22;10414;52.074;5.126;2023-08-17T14:14:31;22.60;99.90
20512;DHT22;10414;52.074;5.126;2023-08-17T14:16:58;22.40;99.90
20512;DHT22;10414;52.074;5.126;2023-08-17T14:19:25;22.30;99.90
20512;DHT22;10414;52.074;5.126;2023-08-17T14:21:56;21.90;99.90
20512;DHT22;10414;52.074;5.126;2023-08-17T14:24:29;21.70;99.90
20512;DHT22;10414;52.074;5.126;2023-08-17T14:27:06;21.70;99.90
20512;DHT22;10414;52.074;5.126;2023-08-17T14:29:33;21.50;99.90
20512;DHT22;10414;52.074;5.126;2023-08-17T14:32:00;21.50;99.90
20512;DHT22;10414;52.074;5.126;2023-08-17T14:34:27;21.50;99.90
20512;DHT22;10414;52.074;5.126;2023-08-17T14:36:56;21.50;99.90
20512;DHT22;10414;52.074;5.126;2023-08-17T14:39:26;21.60;99.90
20512;DHT22;10414;52.074;5.126;2023-08-17T14:41:53;21.60;99.90
20512;DHT22;10414;52.074;5.126;2023-08-17T14:44:19;21.60;99.90
20512;DHT22;10414;52.074;5.126;2023-08-17T14:46:46;21.60;99.90
20512;DHT22;10414;52.074;5.126;2023-08-17T14:49:13;21.70;99.90
20512;DHT22;10414;52.074;5.126;2023-08-17T14:51:42;21.90;99.90
20512;DHT22;10414;52.074;5.126;2023-08-17T14:54:11;21.90;99.90
20512;DHT22;10414;52.074;5.126;2023-08-17T14:56:37;21.90;99.90
20512;DHT22;10414;52.074;5.126;2023-08-17T14:59:06;21.90;99.90
20512;DHT22;10414;52.074;5.126;2023-08-17T15:01:33;21.70;99.90
20512;DHT22;10414;52.074;5.126;2023-08-17T15:04:00;21.90;99.90
20512;DHT22;10414;52.074;5.126;2023-08-17T15:06:27;22.00;99.90
20512;DHT22;10414;52.074;5.126;2023-08-17T15:08:54;22.00;99.90
20512;DHT22;10414;52.074;5.126;2023-08-17T15:11:24;21.70;99.90
20512;DHT22;10414;52.074;5.126;2023-08-17T15:13:51;21.80;99.90
20512;DHT22;10414;52.074;5.126;2023-08-17T15:16:17;21.80;99.90
20512;DHT22;10414;52.074;5.126;2023-08-17T15:18:53;21.70;99.90
20512;DHT22;10414;52.074;5.126;2023-08-17T15:21:20;21.90;99.90
20512;DHT22;10414;52.074;5.126;2023-08-17T15:23:47;21.90;99.90
20512;DHT22;10414;52.074;5.126;2023-08-17T15:26:14;22.10;99.90
20512;DHT22;10414;52.074;5.126;2023-08-17T15:28:42;22.00;99.90
20512;DHT22;10414;52.074;5.126;2023-08-17T15:31:09;22.00;99.90
20512;DHT22;10414;52.074;5.126;2023-08-17T15:33:38;22.10;99.90
20512;DHT22;10414;52.074;5.126;2023-08-17T15:36:05;22.00;99.90
20512;DHT22;10414;52.074;5.126;2023-08-17T15:38:35;21.70;99.90